Garske, North Dakota
Current Conditions -  °F | °C
As of 6:15 PM on Wednesday 28 Jan 2015 (Local Time) from KDVL Reporting Station
Overcast Overcast  
Wind Chill: 13°   Ceiling: 600
Heat Index: 27°   Visibility: 10mi
Dew Point: 23°   Wind: 21mph
Humidity: 86%   Direction: 340°NNW
Pressure: 29.97"   Gusts: 26mph
Location:  48.3263°N, 98.8756°W
Report Text: KDVL 290015Z AUTO 34018G23KT 10SM OVC006 M03/M05 A2997 RMK AO1
Loading
Personal Weather Stations






























Interactive Weather Map New forecast layout! Learn more

10-Day Weather Forecast

Advertisements
Track Severe Weather on mobile